Nearby METAR Reports

 

KBJC - Broomfield/Jeffc, Colorado, USA
Distance from station: NNW 11mi, 17km
Updated: 05/26/2018 8:47pm
Overcast
Overcast
 Wind from calm
Wind: Calm
Temperature: 73°F , 23°C
Dew Point: 37°F , 3°C
Humidity: 27%
Barometer: 29.83 inHg , 1010.2 hPa
Clouds: Overcast
Visibility: 30 miles , 48 km
Cloud details: Overcast 15000 ft
2018/05/27 02:47 KBJC 270247Z 00000KT 30SM OVC150 23/03 A2983
KBKF - Buckley Angb/Den, Colorado, USA
Distance from station: E 16mi, 25km
Updated: 12/31/1969 5:00pm
NOT Current
unable to load KBKF data RC=404 Not Found
unable to load KBKF data RC=404 Not Found
 
 
KAPA - Denver/Arapahoe, Colorado, USA
Distance from station: SE 16mi, 26km
Updated: 05/26/2018 8:53pm
Mostly cloudy
Mostly cloudy
 Wind from S
Wind: S 7 mph , 11 km/h
Temperature: 70°F , 21°C
Dew Point: 30°F , -1°C
Humidity: 23%
Barometer: 29.85 inHg , 1010.8 hPa
Clouds: Mostly cloudy
Visibility: 10 miles , 16 km
Cloud details: Partly cloudy 16000 ft
Mostly cloudy 20000 ft
2018/05/27 02:53 KAPA 270253Z 18006KT 10SM SCT160 BKN200 21/M01 A2985 RMK AO2 SLP029 T02061011 55002
KEIK - Erie Muni, Colorado, USA
Distance from station: N 18mi, 29km
Updated: 05/26/2018 9:18pm
Clear
Clear
 Wind from calm
Wind: Calm
Temperature: 68°F , 20°C
Dew Point: 48°F , 9°C
Humidity: 49%
Barometer: 29.84 inHg , 1010.5 hPa
Clouds: Clear
Visibility: 10 miles , 16 km
2018/05/27 03:18 KEIK 270318Z AUTO 00000KT 10SM CLR 20/09 A2984 RMK AO2 T01960094
 
KBDU - Boulder Muni, Colorado, USA
Distance from station: NNW 22mi, 35km
Updated: 05/26/2018 9:12pm
Clear
Clear
 Wind from SSW
Wind: SSW 6 mph , 9 km/h
Temperature: 72°F , 22°C
Dew Point: 37°F , 3°C
Humidity: 29%
Barometer: 29.80 inHg , 1009.1 hPa
Clouds: Clear
Visibility: 10 miles , 16 km
2018/05/27 03:12 KBDU 270312Z AUTO 21005KT 10SM CLR 22/03 A2980 RMK AO2
KDEN - Denver (dia), Colorado, USA
Distance from station: ENE 22mi, 35km
Updated: 05/26/2018 8:53pm
Mostly cloudy
Mostly cloudy
 Wind from SE
Wind: SE 10 mph , 17 km/h
Temperature: 72°F , 22°C
Dew Point: 27°F , -3°C
Humidity: 19%
Barometer: 29.80 inHg , 1009.1 hPa
Clouds: Mostly cloudy
Visibility: 10 miles , 16 km
Cloud details: Mostly cloudy 16000 ft
Mostly cloudy 22000 ft
2018/05/27 02:53 KDEN 270253Z 13009KT 10SM BKN160 BKN220 22/M03 A2980 RMK AO2 SLP008 T02221033 50000
 
KFTG - Denver F. Range, Colorado, USA
Distance from station: E 26mi, 42km
Updated: 05/26/2018 9:17pm
Clear
Clear
 Wind from ESE
Wind: ESE 8 mph , 13 km/h
Temperature: 75°F , 24°C
Dew Point: 30°F , -1°C
Humidity: 19%
Barometer: 29.83 inHg , 1010.2 hPa
Clouds: Clear
Visibility: 10 miles , 16 km
2018/05/27 03:17 KFTG 270317Z AUTO 12007KT 10SM CLR 24/M01 A2983 RMK AO2 T02381009
KLMO - Longmont/Vbrand, Colorado, USA
Distance from station: NNW 29mi, 47km
Updated: 05/26/2018 9:15pm
Clear
Clear
 Wind from calm
Wind: Calm
Temperature: 70°F , 21°C
Dew Point: 50°F , 10°C
Humidity: 50%
Barometer: 29.80 inHg , 1009.1 hPa
Clouds: Clear
Visibility: 10 miles , 16 km
2018/05/27 03:15 KLMO 270315Z AUTO 00000KT 10SM CLR 21/10 A2980 RMK AO2 T02130102
 
K0CO - Berthoud Pass, Colorado, USA
Distance from station: W 39mi, 62km
Updated: 05/26/2018 9:12pm
Clear
Clear
 Wind from S
Wind: S 18 mph , 30 km/h, Gust: 33 mph , 54 km/h
Temperature: 45°F , 7°C
Wind Chill: 37°F , 3°C
Dew Point: 32°F , 0°C
Humidity: 61%
Barometer: 30.37 inHg , 1028.4 hPa
Clouds: Clear
Visibility: 10 miles , 16 km
2018/05/27 03:12 K0CO 270312Z AUTO 19016G29KT 161V221 10SM CLR 07/00 A3037 RMK AO2
KMNH - Monument/Elbert, Colorado, USA
Distance from station: SSE 43mi, 68km
Updated: 05/26/2018 9:12pm
Clear
Clear
 Wind from SSW
Wind: SSW 6 mph , 9 km/h
Temperature: 66°F , 19°C
Dew Point: 18°F , -8°C
Humidity: 15%
Barometer: 29.99 inHg , 1015.6 hPa
Clouds: Clear
Visibility: 10 miles , 16 km
2018/05/27 03:12 KMNH 270312Z AUTO 21005KT 10SM CLR 19/M08 A2999 RMK AO2
 
KFNL - Ft Collins/Lovel, Colorado, USA
Distance from station: N 48mi, 78km
Updated: 05/26/2018 8:56pm
Clear
Clear
 Wind from calm
Wind: Calm
Temperature: 75°F , 24°C
Dew Point: 50°F , 10°C
Humidity: 41%
Barometer: 29.78 inHg , 1008.5 hPa
Clouds: Clear
Visibility: 10 miles , 16 km
2018/05/27 02:56 KFNL 270256Z AUTO 00000KT 10SM CLR 24/10 A2978 RMK AO2 SLP018 T02440100 56003